sensor_id;sensor_type;location;lat;lon;timestamp;pressure;altitude;pressure_sealevel;temperature;humidity
9784;BME280;4931;44.874;-1.092;2023-05-23T00:00:20;101479.13;;;15.73;100.00
9784;BME280;4931;44.874;-1.092;2023-05-23T00:02:46;101476.06;;;15.75;100.00
9784;BME280;4931;44.874;-1.092;2023-05-23T00:05:12;101476.06;;;15.75;100.00
9784;BME280;4931;44.874;-1.092;2023-05-23T00:07:40;101467.09;;;15.64;100.00
9784;BME280;4931;44.874;-1.092;2023-05-23T00:10:05;101471.47;;;15.65;100.00
9784;BME280;4931;44.874;-1.092;2023-05-23T00:12:31;101468.75;;;15.60;100.00
9784;BME280;4931;44.874;-1.092;2023-05-23T00:14:58;101460.03;;;15.53;100.00
9784;BME280;4931;44.874;-1.092;2023-05-23T00:17:23;101463.22;;;15.60;100.00
9784;BME280;4931;44.874;-1.092;2023-05-23T00:19:52;101473.72;;;15.63;100.00
9784;BME280;4931;44.874;-1.092;2023-05-23T00:22:20;101471.25;;;15.62;100.00
9784;BME280;4931;44.874;-1.092;2023-05-23T00:24:46;101463.97;;;15.47;100.00
9784;BME280;4931;44.874;-1.092;2023-05-23T00:27:11;101470.09;;;15.43;100.00
9784;BME280;4931;44.874;-1.092;2023-05-23T00:29:37;101475.16;;;15.36;100.00
9784;BME280;4931;44.874;-1.092;2023-05-23T00:32:02;101458.63;;;15.31;100.00
9784;BME280;4931;44.874;-1.092;2023-05-23T00:34:28;101470.22;;;15.33;100.00
9784;BME280;4931;44.874;-1.092;2023-05-23T00:36:53;101458.00;;;15.39;100.00
9784;BME280;4931;44.874;-1.092;2023-05-23T00:39:19;101467.94;;;15.40;100.00
9784;BME280;4931;44.874;-1.092;2023-05-23T00:41:49;101467.41;;;15.38;100.00
9784;BME280;4931;44.874;-1.092;2023-05-23T00:44:15;101458.56;;;15.36;100.00
9784;BME280;4931;44.874;-1.092;2023-05-23T00:46:46;101462.84;;;15.48;100.00
9784;BME280;4931;44.874;-1.092;2023-05-23T00:49:13;101465.38;;;15.44;100.00
9784;BME280;4931;44.874;-1.092;2023-05-23T00:51:39;101460.69;;;15.44;100.00
9784;BME280;4931;44.874;-1.092;2023-05-23T00:54:08;101461.75;;;15.49;100.00
9784;BME280;4931;44.874;-1.092;2023-05-23T00:56:34;101467.78;;;15.51;100.00
9784;BME280;4931;44.874;-1.092;2023-05-23T00:59:01;101460.09;;;15.48;100.00
9784;BME280;4931;44.874;-1.092;2023-05-23T01:01:26;101465.56;;;15.53;100.00
9784;BME280;4931;44.874;-1.092;2023-05-23T01:03:52;101463.84;;;15.57;100.00
9784;BME280;4931;44.874;-1.092;2023-05-23T01:06:19;101463.84;;;15.57;100.00
9784;BME280;4931;44.874;-1.092;2023-05-23T01:08:45;101456.34;;;15.57;100.00
9784;BME280;4931;44.874;-1.092;2023-05-23T01:11:21;101450.56;;;15.59;100.00
9784;BME280;4931;44.874;-1.092;2023-05-23T01:13:58;101448.59;;;15.59;100.00
9784;BME280;4931;44.874;-1.092;2023-05-23T01:21:39;101445.59;;;15.56;100.00
9784;BME280;4931;44.874;-1.092;2023-05-23T01:27:08;101451.00;;;15.66;100.00
9784;BME280;4931;44.874;-1.092;2023-05-23T01:29:45;101458.25;;;15.62;100.00
9784;BME280;4931;44.874;-1.092;2023-05-23T01:32:13;101461.47;;;15.69;100.00
9784;BME280;4931;44.874;-1.092;2023-05-23T01:34:40;101465.38;;;15.68;100.00
9784;BME280;4931;44.874;-1.092;2023-05-23T01:37:08;101464.25;;;15.69;100.00
9784;BME280;4931;44.874;-1.092;2023-05-23T01:39:35;101466.22;;;15.88;100.00
9784;BME280;4931;44.874;-1.092;2023-05-23T01:42:01;101470.75;;;15.79;100.00
9784;BME280;4931;44.874;-1.092;2023-05-23T01:44:26;101460.56;;;15.74;100.00
9784;BME280;4931;44.874;-1.092;2023-05-23T01:46:52;101464.31;;;15.64;100.00
9784;BME280;4931;44.874;-1.092;2023-05-23T01:49:18;101463.09;;;15.70;100.00
9784;BME280;4931;44.874;-1.092;2023-05-23T01:51:45;101466.59;;;15.57;100.00
9784;BME280;4931;44.874;-1.092;2023-05-23T01:54:11;101458.91;;;15.54;100.00
9784;BME280;4931;44.874;-1.092;2023-05-23T01:56:39;101466.53;;;15.62;100.00
9784;BME280;4931;44.874;-1.092;2023-05-23T01:59:05;101465.38;;;15.68;100.00
9784;BME280;4931;44.874;-1.092;2023-05-23T02:01:32;101459.91;;;15.63;100.00
9784;BME280;4931;44.874;-1.092;2023-05-23T02:03:58;101460.63;;;15.50;100.00
9784;BME280;4931;44.874;-1.092;2023-05-23T02:06:24;101459.03;;;15.43;100.00
9784;BME280;4931;44.874;-1.092;2023-05-23T02:08:49;101468.44;;;15.42;100.00
9784;BME280;4931;44.874;-1.092;2023-05-23T02:11:15;101468.00;;;15.35;100.00
9784;BME280;4931;44.874;-1.092;2023-05-23T02:13:40;101468.50;;;15.37;100.00
9784;BME280;4931;44.874;-1.092;2023-05-23T02:16:06;101464.94;;;15.37;100.00
9784;BME280;4931;44.874;-1.092;2023-05-23T02:18:32;101458.00;;;15.39;100.00
9784;BME280;4931;44.874;-1.092;2023-05-23T02:20:57;101459.66;;;15.40;100.00
9784;BME280;4931;44.874;-1.092;2023-05-23T02:23:23;101448.09;;;15.33;100.00
9784;BME280;4931;44.874;-1.092;2023-05-23T02:25:49;101452.69;;;15.19;100.00
9784;BME280;4931;44.874;-1.092;2023-05-23T02:28:14;101452.47;;;15.15;100.00
9784;BME280;4931;44.874;-1.092;2023-05-23T02:30:40;101457.13;;;15.20;100.00
9784;BME280;4931;44.874;-1.092;2023-05-23T02:33:06;101455.41;;;15.24;100.00
9784;BME280;4931;44.874;-1.092;2023-05-23T02:35:32;101462.09;;;15.18;100.00
9784;BME280;4931;44.874;-1.092;2023-05-23T02:37:58;101451.88;;;15.18;100.00
9784;BME280;4931;44.874;-1.092;2023-05-23T02:40:24;101456.00;;;15.21;100.00
9784;BME280;4931;44.874;-1.092;2023-05-23T02:42:49;101447.16;;;15.19;100.00
9784;BME280;4931;44.874;-1.092;2023-05-23T02:45:16;101450.25;;;15.17;100.00
9784;BME280;4931;44.874;-1.092;2023-05-23T02:47:42;101445.31;;;15.14;100.00
9784;BME280;4931;44.874;-1.092;2023-05-23T02:50:08;101441.34;;;15.20;100.00
9784;BME280;4931;44.874;-1.092;2023-05-23T02:52:33;101448.81;;;15.20;100.00
9784;BME280;4931;44.874;-1.092;2023-05-23T02:54:59;101445.63;;;15.07;100.00
9784;BME280;4931;44.874;-1.092;2023-05-23T02:57:25;101444.72;;;15.17;100.00
9784;BME280;4931;44.874;-1.092;2023-05-23T02:59:50;101449.94;;;15.19;100.00
9784;BME280;4931;44.874;-1.092;2023-05-23T03:02:16;101447.53;;;15.12;100.00
9784;BME280;4931;44.874;-1.092;2023-05-23T03:04:41;101448.41;;;15.07;100.00
9784;BME280;4931;44.874;-1.092;2023-05-23T03:07:07;101458.94;;;15.05;100.00
9784;BME280;4931;44.874;-1.092;2023-05-23T03:09:34;101455.63;;;15.03;100.00
9784;BME280;4931;44.874;-1.092;2023-05-23T03:11:59;101462.22;;;15.07;100.00
9784;BME280;4931;44.874;-1.092;2023-05-23T03:14:25;101461.75;;;15.00;100.00
9784;BME280;4931;44.874;-1.092;2023-05-23T03:16:50;101453.81;;;15.18;100.00
9784;BME280;4931;44.874;-1.092;2023-05-23T03:19:16;101456.69;;;15.07;100.00
9784;BME280;4931;44.874;-1.092;2023-05-23T03:21:41;101452.34;;;15.01;100.00
9784;BME280;4931;44.874;-1.092;2023-05-23T03:24:08;101451.75;;;15.04;100.00
9784;BME280;4931;44.874;-1.092;2023-05-23T03:26:33;101457.28;;;15.04;100.00
9784;BME280;4931;44.874;-1.092;2023-05-23T03:28:59;101451.91;;;14.89;100.00
9784;BME280;4931;44.874;-1.092;2023-05-23T03:31:24;101464.19;;;14.77;100.00
9784;BME280;4931;44.874;-1.092;2023-05-23T03:33:50;101464.06;;;14.88;100.00
9784;BME280;4931;44.874;-1.092;2023-05-23T03:36:15;101453.16;;;14.77;100.00
9784;BME280;4931;44.874;-1.092;2023-05-23T03:38:41;101451.91;;;14.59;100.00
9784;BME280;4931;44.874;-1.092;2023-05-23T03:41:06;101457.13;;;14.66;100.00
9784;BME280;4931;44.874;-1.092;2023-05-23T03:43:32;101464.19;;;14.77;100.00
9784;BME280;4931;44.874;-1.092;2023-05-23T03:45:57;101459.28;;;14.69;100.00
9784;BME280;4931;44.874;-1.092;2023-05-23T03:48:23;101459.34;;;14.64;100.00
9784;BME280;4931;44.874;-1.092;2023-05-23T03:50:49;101462.63;;;14.66;100.00
9784;BME280;4931;44.874;-1.092;2023-05-23T03:53:14;101461.28;;;14.58;100.00
9784;BME280;4931;44.874;-1.092;2023-05-23T03:55:40;101465.09;;;14.68;100.00
9784;BME280;4931;44.874;-1.092;2023-05-23T03:58:06;101465.94;;;14.68;100.00
9784;BME280;4931;44.874;-1.092;2023-05-23T04:00:31;101466.75;;;14.69;100.00
9784;BME280;4931;44.874;-1.092;2023-05-23T04:02:57;101468.72;;;14.63;100.00
9784;BME280;4931;44.874;-1.092;2023-05-23T04:05:22;101462.63;;;14.66;100.00
9784;BME280;4931;44.874;-1.092;2023-05-23T04:07:48;101464.31;;;14.62;100.00
9784;BME280;4931;44.874;-1.092;2023-05-23T04:10:14;101457.47;;;14.54;100.00
9784;BME280;4931;44.874;-1.092;2023-05-23T04:12:39;101464.94;;;14.54;100.00
9784;BME280;4931;44.874;-1.092;2023-05-23T04:15:06;101467.69;;;14.54;100.00
9784;BME280;4931;44.874;-1.092;2023-05-23T04:17:32;101479.84;;;14.53;100.00
9784;BME280;4931;44.874;-1.092;2023-05-23T04:19:57;101472.59;;;14.62;100.00
9784;BME280;4931;44.874;-1.092;2023-05-23T04:22:23;101466.22;;;14.61;100.00
9784;BME280;4931;44.874;-1.092;2023-05-23T04:24:48;101472.53;;;14.72;100.00
9784;BME280;4931;44.874;-1.092;2023-05-23T04:27:14;101469.72;;;14.77;100.00
9784;BME280;4931;44.874;-1.092;2023-05-23T04:29:40;101452.66;;;14.70;100.00
9784;BME280;4931;44.874;-1.092;2023-05-23T04:32:05;101450.78;;;14.66;100.00
9784;BME280;4931;44.874;-1.092;2023-05-23T04:34:32;101456.31;;;14.60;100.00
9784;BME280;4931;44.874;-1.092;2023-05-23T04:37:01;101442.00;;;14.53;100.00
9784;BME280;4931;44.874;-1.092;2023-05-23T04:39:30;101456.31;;;14.60;100.00
9784;BME280;4931;44.874;-1.092;2023-05-23T04:41:55;101453.25;;;14.67;100.00
9784;BME280;4931;44.874;-1.092;2023-05-23T04:44:24;101458.03;;;14.56;100.00
9784;BME280;4931;44.874;-1.092;2023-05-23T04:46:54;101469.06;;;14.56;100.00
9784;BME280;4931;44.874;-1.092;2023-05-23T04:49:20;101468.16;;;14.66;100.00
9784;BME280;4931;44.874;-1.092;2023-05-23T04:51:47;101448.38;;;14.54;100.00
9784;BME280;4931;44.874;-1.092;2023-05-23T04:54:12;101453.41;;;14.47;100.00
9784;BME280;4931;44.874;-1.092;2023-05-23T04:56:38;101471.63;;;14.48;100.00
9784;BME280;4931;44.874;-1.092;2023-05-23T04:59:03;101483.38;;;14.58;100.00
9784;BME280;4931;44.874;-1.092;2023-05-23T05:01:29;101479.22;;;14.61;100.00
9784;BME280;4931;44.874;-1.092;2023-05-23T05:03:55;101487.09;;;14.43;100.00
9784;BME280;4931;44.874;-1.092;2023-05-23T05:06:21;101487.34;;;14.47;100.00
9784;BME280;4931;44.874;-1.092;2023-05-23T05:08:47;101485.13;;;14.49;100.00
9784;BME280;4931;44.874;-1.092;2023-05-23T05:11:13;101488.75;;;14.44;100.00
9784;BME280;4931;44.874;-1.092;2023-05-23T05:13:38;101494.47;;;14.53;100.00
9784;BME280;4931;44.874;-1.092;2023-05-23T05:16:04;101492.66;;;14.38;100.00
9784;BME280;4931;44.874;-1.092;2023-05-23T05:18:29;101496.78;;;14.41;100.00
9784;BME280;4931;44.874;-1.092;2023-05-23T05:20:55;101503.16;;;14.36;100.00
9784;BME280;4931;44.874;-1.092;2023-05-23T05:23:25;101499.81;;;14.44;100.00
9784;BME280;4931;44.874;-1.092;2023-05-23T05:25:53;101499.22;;;14.48;100.00
9784;BME280;4931;44.874;-1.092;2023-05-23T05:28:18;101494.47;;;14.53;100.00
9784;BME280;4931;44.874;-1.092;2023-05-23T05:30:45;101492.38;;;14.74;100.00
9784;BME280;4931;44.874;-1.092;2023-05-23T05:33:13;101492.28;;;14.85;100.00
9784;BME280;4931;44.874;-1.092;2023-05-23T05:35:38;101494.00;;;14.81;100.00
9784;BME280;4931;44.874;-1.092;2023-05-23T05:38:04;101505.16;;;15.00;100.00
9784;BME280;4931;44.874;-1.092;2023-05-23T05:40:31;101502.09;;;15.01;100.00
9784;BME280;4931;44.874;-1.092;2023-05-23T05:42:56;101496.47;;;15.12;100.00
9784;BME280;4931;44.874;-1.092;2023-05-23T05:45:22;101500.31;;;15.10;100.00
9784;BME280;4931;44.874;-1.092;2023-05-23T05:47:47;101496.31;;;15.22;100.00
9784;BME280;4931;44.874;-1.092;2023-05-23T05:50:13;101493.84;;;15.20;100.00
9784;BME280;4931;44.874;-1.092;2023-05-23T05:52:40;101500.81;;;15.42;100.00
9784;BME280;4931;44.874;-1.092;2023-05-23T05:55:07;101495.03;;;15.38;100.00
9784;BME280;4931;44.874;-1.092;2023-05-23T05:57:35;101500.97;;;15.51;100.00
9784;BME280;4931;44.874;-1.092;2023-05-23T06:00:07;101504.22;;;15.58;100.00
9784;BME280;4931;44.874;-1.092;2023-05-23T06:02:38;101503.53;;;15.47;100.00
9784;BME280;4931;44.874;-1.092;2023-05-23T06:05:04;101505.03;;;15.34;100.00
9784;BME280;4931;44.874;-1.092;2023-05-23T06:07:37;101496.31;;;15.22;100.00
9784;BME280;4931;44.874;-1.092;2023-05-23T06:10:03;101503.38;;;15.33;100.00
9784;BME280;4931;44.874;-1.092;2023-05-23T06:12:29;101505.25;;;15.14;100.00
9784;BME280;4931;44.874;-1.092;2023-05-23T06:14:54;101514.94;;;15.40;100.00
9784;BME280;4931;44.874;-1.092;2023-05-23T06:17:20;101490.69;;;15.32;100.00
9784;BME280;4931;44.874;-1.092;2023-05-23T06:19:45;101489.50;;;15.38;100.00
9784;BME280;4931;44.874;-1.092;2023-05-23T06:22:11;101479.16;;;15.25;100.00
9784;BME280;4931;44.874;-1.092;2023-05-23T06:24:36;101488.69;;;15.38;100.00
9784;BME280;4931;44.874;-1.092;2023-05-23T06:27:02;101489.56;;;15.33;100.00
9784;BME280;4931;44.874;-1.092;2023-05-23T06:29:28;101487.41;;;15.30;100.00
9784;BME280;4931;44.874;-1.092;2023-05-23T06:31:55;101495.63;;;15.35;100.00
9784;BME280;4931;44.874;-1.092;2023-05-23T06:34:21;101488.91;;;15.41;100.00
9784;BME280;4931;44.874;-1.092;2023-05-23T06:36:46;101488.56;;;15.48;100.00
9784;BME280;4931;44.874;-1.092;2023-05-23T06:39:12;101489.22;;;15.40;100.00
9784;BME280;4931;44.874;-1.092;2023-05-23T06:41:38;101492.09;;;15.54;100.00
9784;BME280;4931;44.874;-1.092;2023-05-23T06:44:04;101488.13;;;15.60;100.00
9784;BME280;4931;44.874;-1.092;2023-05-23T06:46:30;101490.31;;;15.63;100.00
9784;BME280;4931;44.874;-1.092;2023-05-23T06:48:55;101490.28;;;15.87;100.00
9784;BME280;4931;44.874;-1.092;2023-05-23T06:51:21;101480.31;;;16.43;100.00
9784;BME280;4931;44.874;-1.092;2023-05-23T06:53:49;101483.47;;;16.37;100.00
9784;BME280;4931;44.874;-1.092;2023-05-23T06:56:15;101481.81;;;16.36;100.00
9784;BME280;4931;44.874;-1.092;2023-05-23T06:58:40;101481.66;;;16.27;100.00
9784;BME280;4931;44.874;-1.092;2023-05-23T07:01:06;101480.16;;;16.54;100.00
9784;BME280;4931;44.874;-1.092;2023-05-23T07:03:32;101479.91;;;16.50;100.00
9784;BME280;4931;44.874;-1.092;2023-05-23T07:05:57;101480.75;;;16.51;100.00
9784;BME280;4931;44.874;-1.092;2023-05-23T07:08:23;101482.84;;;16.59;100.00
9784;BME280;4931;44.874;-1.092;2023-05-23T07:10:49;101475.03;;;16.61;100.00
9784;BME280;4931;44.874;-1.092;2023-05-23T07:13:14;101471.00;;;16.86;100.00
9784;BME280;4931;44.874;-1.092;2023-05-23T07:15:40;101474.97;;;17.27;100.00
9784;BME280;4931;44.874;-1.092;2023-05-23T07:18:05;101469.19;;;17.51;100.00
9784;BME280;4931;44.874;-1.092;2023-05-23T07:20:34;101462.75;;;17.92;100.00
9784;BME280;4931;44.874;-1.092;2023-05-23T07:22:59;101454.78;;;18.36;100.00
9784;BME280;4931;44.874;-1.092;2023-05-23T07:25:25;101450.97;;;18.55;100.00
9784;BME280;4931;44.874;-1.092;2023-05-23T07:27:51;101452.25;;;18.80;100.00
9784;BME280;4931;44.874;-1.092;2023-05-23T07:30:19;101456.16;;;18.70;100.00
9784;BME280;4931;44.874;-1.092;2023-05-23T07:32:46;101447.97;;;18.42;100.00
9784;BME280;4931;44.874;-1.092;2023-05-23T07:35:12;101448.59;;;18.39;100.00
9784;BME280;4931;44.874;-1.092;2023-05-23T07:37:38;101458.34;;;18.28;100.00
9784;BME280;4931;44.874;-1.092;2023-05-23T07:40:04;101454.66;;;18.41;100.00
9784;BME280;4931;44.874;-1.092;2023-05-23T07:42:30;101468.34;;;18.38;100.00
9784;BME280;4931;44.874;-1.092;2023-05-23T07:44:55;101472.09;;;18.33;100.00
9784;BME280;4931;44.874;-1.092;2023-05-23T07:47:20;101471.44;;;18.36;100.00
9784;BME280;4931;44.874;-1.092;2023-05-23T07:49:46;101464.44;;;18.39;100.00
9784;BME280;4931;44.874;-1.092;2023-05-23T07:52:12;101462.25;;;18.27;100.00
9784;BME280;4931;44.874;-1.092;2023-05-23T07:54:37;101471.06;;;18.29;100.00
9784;BME280;4931;44.874;-1.092;2023-05-23T07:57:03;101467.03;;;18.13;100.00
9784;BME280;4931;44.874;-1.092;2023-05-23T07:59:29;101471.44;;;18.36;100.00
9784;BME280;4931;44.874;-1.092;2023-05-23T08:01:54;101470.66;;;18.67;100.00
9784;BME280;4931;44.874;-1.092;2023-05-23T08:04:20;101476.13;;;18.81;100.00
9784;BME280;4931;44.874;-1.092;2023-05-23T08:06:45;101476.16;;;19.13;100.00
9784;BME280;4931;44.874;-1.092;2023-05-23T08:09:13;101473.84;;;19.55;100.00
9784;BME280;4931;44.874;-1.092;2023-05-23T08:11:39;101478.19;;;20.05;100.00
9784;BME280;4931;44.874;-1.092;2023-05-23T08:14:05;101471.47;;;20.32;100.00
9784;BME280;4931;44.874;-1.092;2023-05-23T08:16:30;101470.91;;;20.65;100.00
9784;BME280;4931;44.874;-1.092;2023-05-23T08:18:56;101469.78;;;20.66;100.00
9784;BME280;4931;44.874;-1.092;2023-05-23T08:21:22;101477.28;;;20.92;100.00
9784;BME280;4931;44.874;-1.092;2023-05-23T08:23:48;101470.03;;;21.30;100.00
9784;BME280;4931;44.874;-1.092;2023-05-23T08:26:13;101471.63;;;21.10;100.00
9784;BME280;4931;44.874;-1.092;2023-05-23T08:28:39;101474.66;;;20.87;100.00
9784;BME280;4931;44.874;-1.092;2023-05-23T08:31:05;101477.75;;;20.94;100.00
9784;BME280;4931;44.874;-1.092;2023-05-23T08:33:31;101480.97;;;21.14;100.00
9784;BME280;4931;44.874;-1.092;2023-05-23T08:35:57;101485.03;;;21.25;100.00
9784;BME280;4931;44.874;-1.092;2023-05-23T08:38:22;101478.00;;;21.49;100.00
9784;BME280;4931;44.874;-1.092;2023-05-23T08:40:51;101480.81;;;21.79;100.00
9784;BME280;4931;44.874;-1.092;2023-05-23T08:43:17;101479.16;;;21.78;100.00
9784;BME280;4931;44.874;-1.092;2023-05-23T08:45:44;101484.06;;;22.02;100.00
9784;BME280;4931;44.874;-1.092;2023-05-23T08:48:12;101472.47;;;22.33;100.00
9784;BME280;4931;44.874;-1.092;2023-05-23T08:50:39;101467.97;;;22.20;100.00
9784;BME280;4931;44.874;-1.092;2023-05-23T08:53:07;101483.09;;;22.19;100.00
9784;BME280;4931;44.874;-1.092;2023-05-23T08:55:33;101473.56;;;22.20;100.00
9784;BME280;4931;44.874;-1.092;2023-05-23T08:57:59;101482.44;;;22.22;100.00
9784;BME280;4931;44.874;-1.092;2023-05-23T09:00:26;101471.03;;;22.27;100.00
9784;BME280;4931;44.874;-1.092;2023-05-23T09:02:52;101472.34;;;22.09;100.00
9784;BME280;4931;44.874;-1.092;2023-05-23T09:05:19;101463.63;;;22.65;100.00
9784;BME280;4931;44.874;-1.092;2023-05-23T09:07:46;101456.69;;;23.08;100.00
9784;BME280;4931;44.874;-1.092;2023-05-23T09:10:15;101451.34;;;23.40;100.00
9784;BME280;4931;44.874;-1.092;2023-05-23T09:12:42;101463.28;;;23.25;100.00
9784;BME280;4931;44.874;-1.092;2023-05-23T09:15:08;101458.78;;;23.11;100.00
9784;BME280;4931;44.874;-1.092;2023-05-23T09:17:35;101462.44;;;23.36;100.00
9784;BME280;4931;44.874;-1.092;2023-05-23T09:20:10;101463.78;;;23.80;100.00
9784;BME280;4931;44.874;-1.092;2023-05-23T09:22:37;101461.00;;;23.80;100.00
9784;BME280;4931;44.874;-1.092;2023-05-23T09:25:04;101457.28;;;23.76;100.00
9784;BME280;4931;44.874;-1.092;2023-05-23T09:27:30;101463.44;;;23.69;100.00
9784;BME280;4931;44.874;-1.092;2023-05-23T09:29:55;101460.38;;;23.99;100.00
9784;BME280;4931;44.874;-1.092;2023-05-23T09:32:21;101458.44;;;23.62;100.00
9784;BME280;4931;44.874;-1.092;2023-05-23T09:35:03;101456.53;;;23.91;100.00
9784;BME280;4931;44.874;-1.092;2023-05-23T09:37:33;101461.75;;;24.05;100.00
9784;BME280;4931;44.874;-1.092;2023-05-23T09:40:00;101466.63;;;24.08;100.00
9784;BME280;4931;44.874;-1.092;2023-05-23T09:42:33;101467.09;;;24.39;100.00
9784;BME280;4931;44.874;-1.092;2023-05-23T09:44:59;101454.72;;;23.58;100.00
9784;BME280;4931;44.874;-1.092;2023-05-23T09:47:25;101461.28;;;24.03;100.00
9784;BME280;4931;44.874;-1.092;2023-05-23T09:49:51;101465.47;;;24.09;100.00
9784;BME280;4931;44.874;-1.092;2023-05-23T09:52:17;101463.31;;;23.90;100.00
9784;BME280;4931;44.874;-1.092;2023-05-23T09:54:45;101463.06;;;23.83;100.00
9784;BME280;4931;44.874;-1.092;2023-05-23T09:57:11;101464.31;;;24.10;100.00
9784;BME280;4931;44.874;-1.092;2023-05-23T09:59:40;101464.53;;;24.33;100.00
9784;BME280;4931;44.874;-1.092;2023-05-23T10:02:10;101465.25;;;24.59;100.00
9784;BME280;4931;44.874;-1.092;2023-05-23T10:04:37;101468.63;;;24.64;100.00
9784;BME280;4931;44.874;-1.092;2023-05-23T10:07:13;101470.81;;;24.87;100.00
9784;BME280;4931;44.874;-1.092;2023-05-23T10:09:41;101462.78;;;24.85;100.00
9784;BME280;4931;44.874;-1.092;2023-05-23T10:15:02;101466.84;;;25.20;100.00
9784;BME280;4931;44.874;-1.092;2023-05-23T10:17:35;101467.13;;;25.31;100.00
9784;BME280;4931;44.874;-1.092;2023-05-23T10:20:07;101459.53;;;25.67;100.00
9784;BME280;4931;44.874;-1.092;2023-05-23T10:22:35;101463.41;;;25.43;100.00
9784;BME280;4931;44.874;-1.092;2023-05-23T10:25:04;101458.13;;;25.25;100.00
9784;BME280;4931;44.874;-1.092;2023-05-23T10:27:31;101457.44;;;25.28;100.00
9784;BME280;4931;44.874;-1.092;2023-05-23T10:30:00;101459.06;;;24.65;100.00
9784;BME280;4931;44.874;-1.092;2023-05-23T10:32:26;101454.88;;;24.75;100.00
9784;BME280;4931;44.874;-1.092;2023-05-23T10:35:00;101451.22;;;24.43;100.00
9784;BME280;4931;44.874;-1.092;2023-05-23T10:37:44;101449.97;;;24.56;100.00
9784;BME280;4931;44.874;-1.092;2023-05-23T10:45:28;101440.78;;;24.72;100.00
9784;BME280;4931;44.874;-1.092;2023-05-23T10:47:54;101446.59;;;24.50;100.00
9784;BME280;4931;44.874;-1.092;2023-05-23T10:50:30;101446.91;;;24.61;100.00
9784;BME280;4931;44.874;-1.092;2023-05-23T10:52:58;101445.69;;;24.62;100.00
9784;BME280;4931;44.874;-1.092;2023-05-23T10:55:25;101442.66;;;24.67;100.00
9784;BME280;4931;44.874;-1.092;2023-05-23T10:58:14;101436.25;;;24.83;100.00
9784;BME280;4931;44.874;-1.092;2023-05-23T11:00:50;101433.38;;;24.95;100.00
9784;BME280;4931;44.874;-1.092;2023-05-23T11:03:17;101435.69;;;25.25;100.00
9784;BME280;4931;44.874;-1.092;2023-05-23T11:05:51;101428.81;;;25.39;100.00
9784;BME280;4931;44.874;-1.092;2023-05-23T11:08:19;101428.81;;;25.39;100.00
9784;BME280;4931;44.874;-1.092;2023-05-23T11:11:02;101439.41;;;25.13;100.00
9784;BME280;4931;44.874;-1.092;2023-05-23T11:13:54;101439.06;;;24.83;100.00
9784;BME280;4931;44.874;-1.092;2023-05-23T11:18:50;101436.47;;;24.46;100.00
9784;BME280;4931;44.874;-1.092;2023-05-23T11:21:16;101435.56;;;24.42;100.00
9784;BME280;4931;44.874;-1.092;2023-05-23T11:23:42;101435.81;;;24.36;100.00
9784;BME280;4931;44.874;-1.092;2023-05-23T11:26:29;101437.56;;;24.13;100.00
9784;BME280;4931;44.874;-1.092;2023-05-23T11:28:56;101428.09;;;24.78;100.00
9784;BME280;4931;44.874;-1.092;2023-05-23T11:31:23;101425.75;;;25.12;100.00
9784;BME280;4931;44.874;-1.092;2023-05-23T11:33:51;101421.00;;;25.48;100.00
9784;BME280;4931;44.874;-1.092;2023-05-23T11:36:17;101421.06;;;25.51;100.00
9784;BME280;4931;44.874;-1.092;2023-05-23T11:38:42;101433.34;;;25.27;100.00
9784;BME280;4931;44.874;-1.092;2023-05-23T11:41:08;101429.00;;;24.82;100.00
9784;BME280;4931;44.874;-1.092;2023-05-23T11:43:33;101425.94;;;24.87;100.00
9784;BME280;4931;44.874;-1.092;2023-05-23T11:46:09;101424.31;;;25.02;100.00
9784;BME280;4931;44.874;-1.092;2023-05-23T11:48:35;101425.94;;;24.87;100.00
9784;BME280;4931;44.874;-1.092;2023-05-23T11:51:01;101424.16;;;24.06;100.00
9784;BME280;4931;44.874;-1.092;2023-05-23T11:53:27;101424.81;;;24.15;100.00
9784;BME280;4931;44.874;-1.092;2023-05-23T11:55:56;101426.25;;;24.53;100.00
9784;BME280;4931;44.874;-1.092;2023-05-23T11:58:27;101425.84;;;24.67;100.00
9784;BME280;4931;44.874;-1.092;2023-05-23T12:01:03;101423.50;;;24.69;100.00
9784;BME280;4931;44.874;-1.092;2023-05-23T12:03:29;101431.44;;;24.67;100.00
9784;BME280;4931;44.874;-1.092;2023-05-23T12:05:59;101424.22;;;24.82;100.00
9784;BME280;4931;44.874;-1.092;2023-05-23T12:08:26;101433.16;;;25.20;100.00
9784;BME280;4931;44.874;-1.092;2023-05-23T12:10:55;101434.44;;;25.07;100.00
9784;BME280;4931;44.874;-1.092;2023-05-23T12:13:23;101430.00;;;24.90;100.00
9784;BME280;4931;44.874;-1.092;2023-05-23T12:15:52;101428.56;;;24.35;100.00
9784;BME280;4931;44.874;-1.092;2023-05-23T12:18:18;101415.19;;;24.73;100.00
9784;BME280;4931;44.874;-1.092;2023-05-23T12:20:44;101426.66;;;24.68;100.00
9784;BME280;4931;44.874;-1.092;2023-05-23T12:23:17;101424.41;;;24.90;100.00
9784;BME280;4931;44.874;-1.092;2023-05-23T12:25:43;101415.53;;;25.03;100.00
9784;BME280;4931;44.874;-1.092;2023-05-23T12:28:09;101425.00;;;25.47;100.00
9784;BME280;4931;44.874;-1.092;2023-05-23T12:30:41;101429.25;;;24.61;100.00
9784;BME280;4931;44.874;-1.092;2023-05-23T12:33:08;101417.88;;;24.69;100.00
9784;BME280;4931;44.874;-1.092;2023-05-23T12:35:34;101434.91;;;25.09;100.00
9784;BME280;4931;44.874;-1.092;2023-05-23T12:37:59;101415.41;;;25.16;100.00
9784;BME280;4931;44.874;-1.092;2023-05-23T12:40:25;101417.97;;;24.89;100.00
9784;BME280;4931;44.874;-1.092;2023-05-23T12:45:33;101422.34;;;24.42;100.00
9784;BME280;4931;44.874;-1.092;2023-05-23T12:47:59;101407.91;;;24.56;100.00
9784;BME280;4931;44.874;-1.092;2023-05-23T12:50:25;101412.91;;;24.79;100.00
9784;BME280;4931;44.874;-1.092;2023-05-23T12:52:50;101408.56;;;24.65;100.00
9784;BME280;4931;44.874;-1.092;2023-05-23T12:55:16;101410.91;;;24.79;100.00
9784;BME280;4931;44.874;-1.092;2023-05-23T12:57:42;101405.75;;;24.81;100.00
9784;BME280;4931;44.874;-1.092;2023-05-23T13:00:09;101411.47;;;24.85;100.00
9784;BME280;4931;44.874;-1.092;2023-05-23T13:02:35;101401.88;;;24.86;100.00
9784;BME280;4931;44.874;-1.092;2023-05-23T13:05:00;101408.66;;;24.85;100.00
9784;BME280;4931;44.874;-1.092;2023-05-23T13:07:26;101405.13;;;24.88;100.00
9784;BME280;4931;44.874;-1.092;2023-05-23T13:09:51;101406.13;;;24.96;100.00